Crystal Airport


Codes: KMIC/
Name: Crystal Airport
City: Minneapolis
Country: United States
Elevation: 869 ft.

Photos at Crystal Airport


   Photos courtesy of SpottingLog. You can add your own sightings and photos by signing up for a free trial today.



No photos found.

Weather at Crystal Airport


Time (UTC)DescriptionTempratureWindCloud coverageVisibilityPressureHumidity
23-May-2024 21:00Scattered Clouds25°C9 mph, S33%10000m1008hPa37%
24-May-2024 00:00Few Clouds24°C9 mph, S20%10000m1007hPa43%
24-May-2024 03:00Scattered Clouds20°C9 mph, S44%10000m1008hPa59%
24-May-2024 06:00Broken Clouds18°C11 mph, SE58%10000m1006hPa68%
24-May-2024 09:00Overcast Clouds16°C11 mph, SE98%10000m1004hPa69%
24-May-2024 12:00Light Rain14°C16 mph, SE99%10000m1002hPa88%
24-May-2024 15:00Moderate Rain17°C13 mph, SE100%10000m999hPa92%
24-May-2024 18:00Light Rain19°C18 mph, SW100%10000m999hPa85%
24-May-2024 21:00Overcast Clouds20°C11 mph, SW88%10000m999hPa51%
25-May-2024 00:00Scattered Clouds15°C18 mph, W44%10000m1002hPa65%
25-May-2024 03:00Few Clouds9°C16 mph, W17%10000m1008hPa66%
25-May-2024 06:00Clear Sky8°C9 mph, W9%10000m1009hPa70%
25-May-2024 09:00Clear Sky7°C7 mph, SW0%10000m1010hPa78%
25-May-2024 12:00Clear Sky8°C4 mph, W0%10000m1011hPa74%
25-May-2024 15:00Clear Sky15°C4 mph, S5%10000m1010hPa48%
25-May-2024 18:00Scattered Clouds17°C11 mph, SW38%10000m1010hPa51%
25-May-2024 21:00Overcast Clouds20°C11 mph, SW100%10000m1008hPa50%
26-May-2024 00:00Overcast Clouds18°C7 mph, SE100%10000m1008hPa55%
26-May-2024 03:00Overcast Clouds17°C9 mph, SE100%10000m1008hPa73%
26-May-2024 06:00Overcast Clouds15°C9 mph, SE92%10000m1006hPa78%
26-May-2024 09:00Broken Clouds15°C11 mph, SE61%10000m1003hPa77%
26-May-2024 12:00Light Rain13°C9 mph, E80%10000m1003hPa87%
26-May-2024 15:00Light Rain13°C11 mph, E100%10000m1002hPa91%
26-May-2024 18:00Heavy Intensity Rain11°C9 mph, E100%10000m1003hPa94%
26-May-2024 21:00Light Rain13°C9 mph, NE100%10000m1003hPa85%
27-May-2024 00:00Overcast Clouds13°C9 mph, N100%10000m1004hPa83%
27-May-2024 03:00Overcast Clouds11°C9 mph, N100%10000m1005hPa90%
27-May-2024 06:00Overcast Clouds10°C11 mph, N95%10000m1005hPa91%
27-May-2024 09:00Broken Clouds11°C9 mph, NW76%10000m1006hPa86%
27-May-2024 12:00Broken Clouds11°C11 mph, NW79%10000m1008hPa82%
27-May-2024 15:00Light Rain12°C9 mph, NW100%10000m1010hPa81%
27-May-2024 18:00Overcast Clouds18°C9 mph, N99%10000m1010hPa55%
27-May-2024 21:00Light Rain19°C9 mph, NW100%10000m1010hPa55%
28-May-2024 00:00Overcast Clouds18°C11 mph, NW100%10000m1010hPa56%
28-May-2024 03:00Broken Clouds14°C7 mph, W82%10000m1011hPa74%
28-May-2024 06:00Scattered Clouds12°C4 mph, W44%10000m1011hPa80%
28-May-2024 09:00Scattered Clouds12°C9 mph, SW45%10000m1010hPa80%
28-May-2024 12:00Scattered Clouds12°C11 mph, NW50%10000m1011hPa79%
28-May-2024 15:00Scattered Clouds14°C16 mph, NW27%10000m1012hPa54%
28-May-2024 18:00Scattered Clouds13°C16 mph, NW42%10000m1014hPa54%